Time;durP1;ratioP1;P1;durP2;ratioP2;P2;SDS_P1;SDS_P2;PMS_P1;PMS_P2;Temp;Humidity;BMP_temperature;BMP_pressure;BME280_temperature;BME280_humidity;BME280_pressure;Samples;Min_cycle;Max_cycle;Signal;HPM_P1;HPM_P2
2022/03/11 00:01:01;;;;;;;8.52;7.22;;;5.00;45.60;;;;;;5068372;28;20207;-84
2022/03/11 00:03:31;;;;;;;9.57;6.75;;;4.90;45.80;;;;;;5068468;28;20809;-84
2022/03/11 00:05:58;;;;;;;11.23;7.45;;;;;;;;;;5068103;28;20206;-84
2022/03/11 00:08:25;;;;;;;9.73;7.75;;;4.90;45.80;;;;;;5068770;28;20278;-84
2022/03/11 00:10:52;;;;;;;10.80;8.48;;;4.90;46.40;;;;;;5068534;28;20647;-84
2022/03/11 00:13:19;;;;;;;12.88;7.53;;;4.90;46.80;;;;;;5067467;28;20207;-84
2022/03/11 00:15:46;;;;;;;10.40;7.20;;;4.90;46.40;;;;;;5068534;28;20206;-84
2022/03/11 00:18:13;;;;;;;10.07;6.68;;;4.80;46.70;;;;;;5068365;28;20211;-85
2022/03/11 00:20:41;;;;;;;8.35;7.10;;;4.90;47.00;;;;;;5068744;28;20206;-84
2022/03/11 00:23:08;;;;;;;9.20;6.88;;;4.80;47.30;;;;;;5068525;28;20203;-84
2022/03/11 00:25:35;;;;;;;12.52;7.50;;;4.90;47.00;;;;;;5068295;28;20241;-84
2022/03/11 00:28:02;;;;;;;14.93;9.35;;;4.80;47.20;;;;;;5068096;28;20286;-85
2022/03/11 00:30:29;;;;;;;12.52;8.60;;;4.70;47.60;;;;;;5068241;28;20304;-84
2022/03/11 00:32:56;;;;;;;9.02;7.15;;;4.70;47.90;;;;;;5067374;28;20249;-84
2022/03/11 00:35:23;;;;;;;12.98;8.82;;;4.80;48.00;;;;;;5068634;28;20305;-85
2022/03/11 00:37:51;;;;;;;10.00;8.10;;;4.80;48.30;;;;;;5067457;28;20284;-85
2022/03/11 00:40:18;;;;;;;13.63;9.00;;;4.90;48.50;;;;;;5061851;28;20220;-85
2022/03/11 00:42:45;;;;;;;11.60;9.38;;;4.60;48.50;;;;;;5062454;28;20303;-84
2022/03/11 00:45:12;;;;;;;12.13;8.85;;;4.70;48.80;;;;;;5068091;28;20669;-84
2022/03/11 00:47:39;;;;;;;9.38;8.35;;;4.60;49.40;;;;;;5066552;28;20269;-84
2022/03/11 00:50:07;;;;;;;12.02;9.40;;;4.60;49.10;;;;;;5067515;28;20871;-84
2022/03/11 00:52:34;;;;;;;12.85;9.13;;;4.60;49.40;;;;;;5068378;28;20285;-84
2022/03/11 00:55:03;;;;;;;13.20;10.40;;;5.00;50.10;;;;;;5067875;28;20191;-84
2022/03/11 00:57:30;;;;;;;14.02;9.50;;;5.00;50.00;;;;;;5068379;28;20209;-84
2022/03/11 00:59:57;;;;;;;13.35;9.63;;;4.60;50.00;;;;;;5068209;28;20261;-84
2022/03/11 01:02:24;;;;;;;16.73;10.80;;;4.50;50.10;;;;;;5068364;28;20207;-84
2022/03/11 01:04:51;;;;;;;14.95;10.70;;;4.70;50.70;;;;;;5067559;28;20227;-85
2022/03/11 01:07:18;;;;;;;16.02;11.95;;;4.60;50.60;;;;;;5067322;28;20199;-84
2022/03/11 01:09:46;;;;;;;17.70;10.50;;;4.50;50.80;;;;;;5049162;28;20342;-84
2022/03/11 01:12:15;;;;;;;19.55;11.93;;;4.50;50.90;;;;;;5067709;28;20206;-85
2022/03/11 01:14:43;;;;;;;18.40;12.05;;;4.30;63.80;;;;;;5067716;28;20210;-85
2022/03/11 01:17:11;;;;;;;15.82;10.48;;;4.40;51.20;;;;;;5067466;28;20203;-85
2022/03/11 01:19:38;;;;;;;14.27;10.73;;;4.30;62.50;;;;;;5067482;28;20740;-84
2022/03/11 01:22:06;;;;;;;17.63;11.60;;;4.30;51.50;;;;;;5067014;28;20286;-83
2022/03/11 01:24:34;;;;;;;13.70;10.85;;;4.30;51.60;;;;;;5068065;28;20235;-84
2022/03/11 01:27:04;;;;;;;15.88;11.02;;;4.30;51.70;;;;;;5071138;28;21035;-84
2022/03/11 01:29:33;;;;;;;17.13;11.30;;;4.40;51.80;;;;;;5071234;28;20217;-83
2022/03/11 01:32:01;;;;;;;21.70;12.68;;;4.40;65.10;;;;;;5071326;28;20256;-84
2022/03/11 01:34:28;;;;;;;16.08;12.00;;;4.30;52.00;;;;;;5070146;28;20298;-83
2022/03/11 01:36:55;;;;;;;15.68;11.20;;;4.10;52.30;;;;;;5071401;28;20693;-84
2022/03/11 01:39:22;;;;;;;21.75;11.98;;;3.90;52.90;;;;;;5066397;28;20230;-83
2022/03/11 01:41:49;;;;;;;13.85;12.05;;;3.70;53.30;;;;;;5071034;28;20595;-84
2022/03/11 01:44:16;;;;;;;14.60;10.55;;;3.60;53.60;;;;;;5070825;28;20874;-84
2022/03/11 01:46:44;;;;;;;15.55;10.10;;;3.70;53.90;;;;;;5071608;28;20203;-84
2022/03/11 01:49:12;;;;;;;13.93;10.82;;;3.30;54.00;;;;;;5067417;28;20219;-83
2022/03/11 01:51:40;;;;;;;16.95;11.15;;;3.30;67.80;;;;;;5071131;28;20199;-84
2022/03/11 01:54:08;;;;;;;13.88;10.52;;;3.60;54.80;;;;;;5070468;28;20209;-84
2022/03/11 01:56:36;;;;;;;17.73;13.02;;;3.00;69.50;;;;;;5071083;28;20551;-84
2022/03/11 01:59:04;;;;;;;20.67;12.43;;;2.90;55.00;;;;;;5070604;28;20200;-83
2022/03/11 02:01:31;;;;;;;15.50;10.88;;;2.90;55.00;;;;;;5070619;28;20665;-84
2022/03/11 02:04:00;;;;;;;18.85;12.02;;;3.00;54.80;;;;;;5067501;28;20199;-83
2022/03/11 02:06:27;;;;;;;17.00;12.38;;;2.90;55.40;;;;;;5070588;28;20293;-84
2022/03/11 02:08:55;;;;;;;16.00;13.00;;;3.40;55.60;;;;;;5070819;28;20280;-84
2022/03/11 02:11:23;;;;;;;21.80;14.40;;;2.90;55.40;;;;;;5050656;28;20227;-82
2022/03/11 02:13:54;;;;;;;16.67;12.15;;;2.80;55.30;;;;;;5061587;28;20191;-83
2022/03/11 02:16:22;;;;;;;14.15;10.77;;;2.80;55.80;;;;;;5069945;28;20298;-83
2022/03/11 02:18:51;;;;;;;15.68;12.07;;;2.70;56.20;;;;;;5070507;28;20334;-83
2022/03/11 02:21:21;;;;;;;15.57;11.82;;;2.70;72.40;;;;;;5070288;28;20921;-84
2022/03/11 02:23:52;;;;;;;19.90;12.85;;;2.80;56.20;;;;;;5070098;28;20215;-85
2022/03/11 02:26:21;;;;;;;18.40;11.80;;;2.60;56.10;;;;;;5069864;28;20199;-83
2022/03/11 02:28:50;;;;;;;19.17;13.02;;;2.50;56.50;;;;;;5069531;28;20208;-83
2022/03/11 02:31:19;;;;;;;17.75;12.80;;;2.50;56.50;;;;;;5069895;28;20219;-83
2022/03/11 02:33:46;;;;;;;16.77;12.77;;;2.40;56.80;;;;;;5065007;28;20215;-82
2022/03/11 02:36:14;;;;;;;20.38;13.65;;;3.30;74.40;;;;;;5069680;28;20234;-86
2022/03/11 02:38:42;;;;;;;20.67;13.65;;;2.50;64.80;;;;;;5070742;28;20704;-85
2022/03/11 02:41:11;;;;;;;14.95;12.90;;;2.60;56.90;;;;;;5069960;28;20195;-85
2022/03/11 02:43:41;;;;;;;22.55;13.75;;;3.00;56.40;;;;;;5060237;28;20209;-86
2022/03/11 02:46:09;;;;;;;20.23;13.95;;;2.80;56.20;;;;;;5070279;28;20328;-84
2022/03/11 02:48:36;;;;;;;19.67;14.10;;;2.80;56.10;;;;;;5066643;28;20222;-85
2022/03/11 02:51:04;;;;;;;19.50;15.15;;;2.80;56.10;;;;;;5070432;28;20219;-86
2022/03/11 02:53:31;;;;;;;20.55;13.00;;;2.90;56.10;;;;;;5070069;28;20890;-85
2022/03/11 02:55:58;;;;;;;24.65;14.95;;;2.80;56.20;;;;;;5070008;28;20199;-85
2022/03/11 02:58:26;;;;;;;19.83;14.82;;;2.70;70.80;;;;;;5069937;28;20294;-86
2022/03/11 03:00:53;;;;;;;19.35;14.35;;;2.80;56.30;;;;;;5070332;28;20788;-85
2022/03/11 03:03:20;;;;;;;16.42;13.15;;;3.10;56.40;;;;;;5070291;28;20195;-86
2022/03/11 03:05:47;;;;;;;24.08;14.57;;;3.00;56.40;;;;;;5070149;28;20276;-85
2022/03/11 03:08:14;;;;;;;21.42;15.13;;;2.80;56.20;;;;;;5069680;28;20199;-85
2022/03/11 03:10:40;;;;;;;20.98;14.45;;;2.80;72.00;;;;;;5069582;28;20292;-86
2022/03/11 03:13:08;;;;;;;18.60;13.88;;;2.90;56.60;;;;;;5070802;28;20199;-84
2022/03/11 03:15:36;;;;;;;18.73;13.60;;;2.70;71.40;;;;;;5070960;28;20286;-85
2022/03/11 03:18:03;;;;;;;18.80;14.02;;;2.80;56.60;;;;;;5070350;28;20257;-85
2022/03/11 03:20:30;;;;;;;22.63;14.70;;;2.80;56.60;;;;;;5070820;28;20667;-85
2022/03/11 03:22:57;;;;;;;18.98;15.73;;;3.10;74.80;;;;;;5070454;28;20199;-85
2022/03/11 03:25:24;;;;;;;17.42;14.73;;;2.70;56.70;;;;;;5069871;28;20278;-86
2022/03/11 03:27:51;;;;;;;28.58;14.32;;;2.70;71.00;;;;;;5068601;28;20203;-85
2022/03/11 03:30:19;;;;;;;20.92;14.60;;;2.60;56.70;;;;;;5066522;28;20296;-85
2022/03/11 03:32:47;;;;;;;19.73;14.93;;;2.70;73.20;;;;;;5069585;28;20215;-85
2022/03/11 03:35:14;;;;;;;22.10;15.05;;;2.80;56.80;;;;;;5069075;28;20294;-85
2022/03/11 03:37:41;;;;;;;21.48;16.20;;;2.70;56.60;;;;;;5069601;28;20203;-85
2022/03/11 03:40:09;;;;;;;23.25;14.13;;;2.80;57.00;;;;;;5069217;28;20227;-85
2022/03/11 03:42:36;;;;;;;25.48;16.10;;;2.70;56.40;;;;;;5069675;28;20195;-86
2022/03/11 03:45:06;;;;;;;26.48;14.77;;;2.50;56.50;;;;;;5066840;28;20215;-85
2022/03/11 03:47:33;;;;;;;19.98;14.10;;;2.50;56.70;;;;;;5062883;28;20747;-86
2022/03/11 03:50:01;;;;;;;21.55;14.60;;;2.40;72.90;;;;;;5064765;28;20235;-85
2022/03/11 03:52:29;;;;;;;22.85;15.23;;;3.00;74.20;;;;;;5068865;28;20230;-85
2022/03/11 03:54:56;;;;;;;25.70;14.80;;;2.70;73.00;;;;;;5069287;28;20200;-85
2022/03/11 03:57:25;;;;;;;21.63;14.45;;;2.80;56.80;;;;;;5069525;28;20213;-85
2022/03/11 03:59:53;;;;;;;19.15;14.30;;;;;;;;;;5068915;28;20681;-86
2022/03/11 04:02:20;;;;;;;22.13;14.20;;;;;;;;;;5069041;28;20214;-85
2022/03/11 04:04:47;;;;;;;22.48;16.35;;;2.40;56.20;;;;;;5068232;28;20751;-86
2022/03/11 04:07:16;;;;;;;22.40;14.98;;;2.40;56.60;;;;;;5068305;28;20737;-85
2022/03/11 04:09:43;;;;;;;21.50;14.23;;;2.40;56.80;;;;;;5069001;28;20261;-85
2022/03/11 04:12:10;;;;;;;22.10;15.00;;;2.50;74.20;;;;;;5069027;28;20280;-85
2022/03/11 04:14:37;;;;;;;24.08;15.68;;;2.50;56.70;;;;;;5068873;28;20267;-85
2022/03/11 04:17:04;;;;;;;24.30;16.42;;;2.60;56.70;;;;;;5068710;28;20257;-84
2022/03/11 04:19:31;;;;;;;20.23;15.32;;;2.20;56.60;;;;;;5068976;28;20268;-84
2022/03/11 04:21:58;;;;;;;23.65;14.63;;;2.20;56.70;;;;;;5068840;28;20295;-86
2022/03/11 04:24:27;;;;;;;22.45;14.82;;;2.20;56.70;;;;;;5065236;28;20243;-86
2022/03/11 04:26:54;;;;;;;20.98;14.20;;;;;;;;;;5068956;28;20321;-85
2022/03/11 04:29:20;;;;;;;18.67;15.02;;;2.20;74.50;;;;;;5068948;28;20207;-85
2022/03/11 04:31:48;;;;;;;23.40;15.90;;;;;;;;;;5068834;28;20225;-86
2022/03/11 04:34:15;;;;;;;22.83;14.05;;;;;;;;;;5068335;28;20261;-85
2022/03/11 04:36:42;;;;;;;20.98;13.70;;;;;;;;;;5068807;28;20207;-84
2022/03/11 04:39:09;;;;;;;22.40;14.80;;;2.20;74.90;;;;;;5068445;28;20202;-85
2022/03/11 04:41:38;;;;;;;23.65;15.25;;;2.10;56.00;;;;;;5068923;28;20280;-85
2022/03/11 04:44:05;;;;;;;24.38;15.23;;;2.20;56.40;;;;;;5068036;28;20287;-84
2022/03/11 04:46:35;;;;;;;19.75;13.07;;;2.10;64.10;;;;;;5068798;28;20619;-85
2022/03/11 04:49:02;;;;;;;21.60;13.95;;;1.60;72.90;;;;;;5066095;28;20230;-85
2022/03/11 04:51:30;;;;;;;23.85;13.95;;;;;;;;;;5068393;28;20231;-86
2022/03/11 04:53:58;;;;;;;23.20;15.05;;;2.00;71.80;;;;;;5068188;28;20226;-85
2022/03/11 04:56:26;;;;;;;20.90;15.10;;;1.90;56.00;;;;;;5068060;28;20205;-85
2022/03/11 04:58:54;;;;;;;19.40;12.75;;;2.10;55.80;;;;;;5067530;28;20207;-84
2022/03/11 05:01:21;;;;;;;19.45;13.98;;;;;;;;;;5072231;28;20203;-86
2022/03/11 05:03:48;;;;;;;21.33;12.63;;;;;;;;;;5072253;28;20214;-85
2022/03/11 05:06:16;;;;;;;19.20;12.63;;;;;;;;;;5071440;28;20731;-86
2022/03/11 05:08:43;;;;;;;23.30;13.70;;;;;;;;;;5072197;28;20203;-85
2022/03/11 05:11:10;;;;;;;20.52;13.60;;;;;;;;;;5071870;28;20219;-85
2022/03/11 05:13:37;;;;;;;20.80;12.65;;;;;;;;;;5071409;28;20276;-85
2022/03/11 05:16:06;;;;;;;20.67;13.80;;;1.80;68.20;;;;;;5071964;28;20681;-85
2022/03/11 05:18:34;;;;;;;23.08;12.82;;;;;;;;;;5068267;28;20215;-86
2022/03/11 05:21:01;;;;;;;19.48;13.98;;;;;;;;;;5072274;28;20204;-85
2022/03/11 05:23:28;;;;;;;17.02;12.32;;;;;;;;;;5071958;28;20661;-84
2022/03/11 05:25:55;;;;;;;19.90;13.23;;;1.70;55.00;;;;;;5071955;28;20269;-85
2022/03/11 05:28:22;;;;;;;18.85;11.75;;;;;;;;;;5072125;28;20236;-85
2022/03/11 05:30:49;;;;;;;19.60;12.82;;;;;;;;;;5071743;28;20216;-86
2022/03/11 05:33:18;;;;;;;19.25;12.10;;;1.50;55.00;;;;;;5072034;28;20203;-86
2022/03/11 05:35:45;;;;;;;15.10;10.90;;;;;;;;;;5072523;28;20260;-87
2022/03/11 05:38:12;;;;;;;18.60;12.38;;;1.60;72.10;;;;;;5072213;28;20293;-86
2022/03/11 05:40:39;;;;;;;25.85;12.43;;;;;;;;;;5063435;28;20257;-88
2022/03/11 05:43:09;;;;;;;17.42;11.50;;;;;;;;;;5069942;28;20279;-85
2022/03/11 05:45:37;;;;;;;17.33;10.15;;;;;;;;;;5072221;28;20212;-87
2022/03/11 05:48:05;;;;;;;24.02;11.65;;;;;;;;;;5072757;28;20207;-88
2022/03/11 05:50:33;;;;;;;16.35;10.68;;;1.40;63.70;;;;;;5072892;28;20191;-87
2022/03/11 05:53:00;;;;;;;13.85;10.25;;;;;;;;;;5072720;28;20203;-87
2022/03/11 05:55:28;;;;;;;13.55;10.10;;;;;;;;;;5071396;28;20207;-88
2022/03/11 05:57:55;;;;;;;17.77;11.50;;;;;;;;;;5071524;28;20321;-89
2022/03/11 06:00:23;;;;;;;12.65;9.05;;;;;;;;;;5073063;28;20196;-87
2022/03/11 06:02:50;;;;;;;19.73;10.15;;;;;;;;;;5070227;28;21088;-88
2022/03/11 06:05:17;;;;;;;16.52;10.65;;;;;;;;;;5065671;28;20200;-86
2022/03/11 06:07:45;;;;;;;15.68;10.25;;;1.40;53.50;;;;;;5072296;28;20203;-88
2022/03/11 06:10:13;;;;;;;13.00;9.23;;;;;;;;;;5072008;28;20677;-89
2022/03/11 06:12:40;;;;;;;15.98;10.65;;;;;;;;;;5061989;28;20239;-87
2022/03/11 06:15:09;;;;;;;14.75;9.73;;;1.30;53.60;;;;;;5056478;28;20588;-87
2022/03/11 06:17:36;;;;;;;18.13;10.00;;;;;;;;;;5052831;28;20237;-87
2022/03/11 06:20:03;;;;;;;12.93;9.35;;;;;;;;;;5072116;28;20206;-87
2022/03/11 06:22:30;;;;;;;16.08;9.68;;;;;;;;;;5072769;28;20208;-87
2022/03/11 06:24:59;;;;;;;14.30;9.50;;;1.30;53.20;;;;;;5073101;28;20237;-87
2022/03/11 06:27:27;;;;;;;16.65;10.25;;;;;;;;;;5072804;28;20756;-88
2022/03/11 06:29:55;;;;;;;17.60;9.48;;;1.40;52.90;;;;;;5073578;28;20649;-88
2022/03/11 06:32:23;;;;;;;12.32;8.70;;;;;;;;;;5072563;28;20211;-88
2022/03/11 06:34:50;;;;;;;13.45;9.05;;;;;;;;;;5072672;28;20269;-88
2022/03/11 06:37:17;;;;;;;14.88;9.18;;;;;;;;;;5074022;28;20210;-88
2022/03/11 06:39:46;;;;;;;16.00;9.38;;;;;;;;;;5074205;28;20268;-87
2022/03/11 06:42:17;;;;;;;14.35;9.43;;;1.70;51.80;;;;;;5066112;28;20188;-86
2022/03/11 06:44:45;;;;;;;16.63;9.30;;;;;;;;;;5065946;28;20215;-88
2022/03/11 06:47:13;;;;;;;17.60;9.32;;;;;;;;;;5069192;28;20207;-89
2022/03/11 06:49:44;;;;;;;13.13;9.18;;;1.60;51.80;;;;;;5072554;28;20199;-88
2022/03/11 06:52:12;;;;;;;13.13;9.38;;;;;;;;;;5064223;28;20220;-89
2022/03/11 06:54:47;;;;;;;17.10;9.32;;;1.60;51.80;;;;;;5072214;28;20288;-89
2022/03/11 06:57:15;;;;;;;13.30;9.55;;;;;;;;;;5054025;28;20207;-88
2022/03/11 06:59:44;;;;;;;17.02;8.90;;;1.70;51.70;;;;;;5072521;28;20210;-89
2022/03/11 07:02:12;;;;;;;16.08;9.43;;;;;;;;;;5072258;28;20256;-88
2022/03/11 07:04:41;;;;;;;11.13;8.90;;;;;;;;;;5070209;28;20318;-88
2022/03/11 07:07:09;;;;;;;10.95;8.35;;;;;;;;;;5071193;28;20199;-87
2022/03/11 07:09:36;;;;;;;12.00;8.55;;;2.00;51.70;;;;;;5071491;28;20272;-88
2022/03/11 07:12:04;;;;;;;12.40;8.00;;;;;;;;;;5070008;28;20220;-89
2022/03/11 07:14:35;;;;;;;9.43;8.25;;;2.10;51.30;;;;;;5071599;28;20293;-88
2022/03/11 07:17:05;;;;;;;12.60;8.18;;;2.40;51.20;;;;;;5071715;28;20223;-90
2022/03/11 07:19:32;;;;;;;10.38;7.80;;;;;;;;;;5070257;28;20214;-88
2022/03/11 07:22:01;;;;;;;12.35;8.68;;;2.40;50.20;;;;;;5069177;28;20188;-89
2022/03/11 07:24:28;;;;;;;12.15;8.35;;;;;;;;;;5072765;28;20750;-89
2022/03/11 07:26:56;;;;;;;11.95;8.48;;;;;;;;;;5069716;28;20324;-89
2022/03/11 07:29:23;;;;;;;12.43;8.15;;;2.60;49.60;;;;;;5071171;28;20195;-88
2022/03/11 07:31:50;;;;;;;19.60;7.95;;;;;;;;;;5071368;28;20588;-90
2022/03/11 07:34:20;;;;;;;12.48;7.45;;;2.80;49.70;;;;;;5071584;28;20227;-88
2022/03/11 07:36:47;;;;;;;11.80;8.05;;;2.90;49.70;;;;;;5070868;28;20286;-90
2022/03/11 07:39:15;;;;;;;12.38;7.43;;;3.00;67.50;;;;;;5071902;28;20739;-90
2022/03/11 07:41:42;;;;;;;8.00;6.22;;;2.90;49.60;;;;;;5056724;28;20291;-89
2022/03/11 07:44:09;;;;;;;9.68;7.13;;;;;;;;;;5072427;28;20207;-89
2022/03/11 07:46:37;;;;;;;14.00;8.35;;;;;;;;;;5070752;28;20253;-88
2022/03/11 07:49:04;;;;;;;13.70;8.23;;;;;;;;;;5070593;28;20577;-89
2022/03/11 07:51:33;;;;;;;11.73;8.15;;;;;;;;;;5063906;28;20251;-89
2022/03/11 07:54:00;;;;;;;27.35;7.80;;;;;;;;;;5070635;28;20294;-90
2022/03/11 07:56:27;;;;;;;13.20;9.25;;;;;;;;;;5070768;28;20516;-90
2022/03/11 07:58:55;;;;;;;10.48;7.20;;;;;;;;;;5071277;28;20187;-89
2022/03/11 08:01:23;;;;;;;12.38;9.02;;;;;;;;;;5069116;28;20238;-89
2022/03/11 08:03:51;;;;;;;13.25;8.63;;;;;;;;;;5070791;28;20249;-90
2022/03/11 08:06:18;;;;;;;15.73;9.35;;;3.50;64.70;;;;;;5071143;28;20239;-89
2022/03/11 08:08:47;;;;;;;11.95;8.30;;;;;;;;;;5072338;28;20199;-90
2022/03/11 08:11:15;;;;;;;14.82;8.98;;;;;;;;;;5070525;28;20210;-90
2022/03/11 08:13:44;;;;;;;13.57;9.90;;;4.60;58.50;;;;;;5071248;28;20231;-89
2022/03/11 08:16:12;;;;;;;12.90;8.70;;;;;;;;;;5070964;28;20209;-90
2022/03/11 08:18:39;;;;;;;11.75;8.60;;;;;;;;;;5070798;28;20207;-89
2022/03/11 08:21:08;;;;;;;11.73;9.13;;;;;;;;;;5071461;28;20207;-89
2022/03/11 08:23:35;;;;;;;15.75;9.73;;;;;;;;;;5070673;28;20211;-88
2022/03/11 08:26:04;;;;;;;13.38;9.70;;;;;;;;;;5071138;28;20261;-89
2022/03/11 08:28:31;;;;;;;11.50;10.07;;;;;;;;;;5070527;28;20235;-89
2022/03/11 08:30:59;;;;;;;16.73;10.88;;;;;;;;;;5071257;28;20289;-88
2022/03/11 08:33:30;;;;;;;14.27;9.60;;;;;;;;;;5057359;28;20245;-89
2022/03/11 08:35:57;;;;;;;12.50;9.48;;;;;;;;;;5049503;28;20215;-89
2022/03/11 08:38:25;;;;;;;17.85;10.30;;;;;;;;;;5058796;28;20282;-89
2022/03/11 08:40:52;;;;;;;15.45;9.38;;;;;;;;;;5070402;28;20213;-89
2022/03/11 08:43:22;;;;;;;16.02;9.98;;;;;;;;;;5070311;28;20214;-89
2022/03/11 08:45:50;;;;;;;15.50;10.35;;;;;;;;;;5069501;28;20904;-89
2022/03/11 08:48:17;;;;;;;12.95;10.23;;;;;;;;;;5070201;28;20238;-89
2022/03/11 08:50:45;;;;;;;15.32;10.25;;;;;;;;;;5069545;28;20213;-90
2022/03/11 08:53:12;;;;;;;18.20;12.55;;;;;;;;;;5068730;28;20227;-90
2022/03/11 08:55:40;;;;;;;16.80;11.40;;;;;;;;;;5070717;28;20298;-89
2022/03/11 08:58:08;;;;;;;15.75;11.65;;;;;;;;;;5070012;28;20237;-90
2022/03/11 09:00:36;;;;;;;18.02;11.55;;;;;;;;;;5071164;28;20199;-89
2022/03/11 09:03:04;;;;;;;15.48;10.82;;;;;;;;;;5070361;28;20196;-90
2022/03/11 09:05:31;;;;;;;17.05;10.65;;;;;;;;;;5070569;28;20199;-90
2022/03/11 09:07:59;;;;;;;16.60;10.40;;;;;;;;;;5070677;28;20206;-89
2022/03/11 09:10:26;;;;;;;13.80;8.60;;;;;;;;;;5071199;28;20225;-89
2022/03/11 09:12:53;;;;;;;16.17;11.48;;;6.00;63.40;;;;;;5070481;28;20223;-88
2022/03/11 09:15:20;;;;;;;14.57;10.63;;;5.90;48.00;;;;;;5071389;28;20198;-88
2022/03/11 09:17:49;;;;;;;17.23;10.77;;;;;;;;;;5071096;28;20203;-88
2022/03/11 09:20:19;;;;;;;19.42;10.38;;;;;;;;;;5071205;28;20202;-89
2022/03/11 09:22:46;;;;;;;19.23;10.25;;;6.50;55.10;;;;;;5071319;28;20203;-89
2022/03/11 09:25:18;;;;;;;13.60;9.95;;;;;;;;;;5069513;28;20192;-88
2022/03/11 09:27:45;;;;;;;18.80;11.77;;;6.40;46.80;;;;;;5070365;28;20211;-88
2022/03/11 09:30:13;;;;;;;14.13;9.93;;;6.50;61.80;;;;;;5069806;28;20271;-87
2022/03/11 09:32:41;;;;;;;14.40;10.32;;;;;;;;;;5070231;28;20225;-88
2022/03/11 09:35:11;;;;;;;16.40;9.70;;;6.50;61.10;;;;;;5069312;28;20234;-88
2022/03/11 09:37:38;;;;;;;15.13;10.27;;;6.90;59.00;;;;;;5070484;28;20234;-89
2022/03/11 09:40:05;;;;;;;11.98;8.98;;;;;;;;;;5071682;28;20203;-89
2022/03/11 09:42:32;;;;;;;12.85;8.35;;;6.80;45.50;;;;;;5062382;28;20690;-89
2022/03/11 09:45:02;;;;;;;13.00;9.38;;;;;;;;;;5066287;28;20203;-89
2022/03/11 09:47:29;;;;;;;15.57;10.00;;;7.00;54.20;;;;;;5072071;28;20215;-89
2022/03/11 09:49:57;;;;;;;11.65;9.00;;;;;;;;;;5081277;28;20253;-89
2022/03/11 09:52:26;;;;;;;15.82;9.05;;;7.10;45.00;;;;;;5075459;28;20234;-89
2022/03/11 09:54:53;;;;;;;14.00;8.65;;;;;;;;;;5076730;28;20199;-89
2022/03/11 09:57:22;;;;;;;14.50;9.60;;;7.20;45.10;;;;;;5067207;28;20211;-89
2022/03/11 09:59:50;;;;;;;16.85;9.15;;;7.10;45.10;;;;;;5074811;28;20191;-89
2022/03/11 10:02:18;;;;;;;11.05;8.45;;;7.40;53.40;;;;;;5072784;28;20199;-88
2022/03/11 10:04:48;;;;;;;17.33;9.80;;;7.30;45.20;;;;;;5073440;28;20219;-88
2022/03/11 10:07:27;;;;;;;12.82;8.88;;;7.30;45.10;;;;;;5071882;28;20269;-90
2022/03/11 10:09:54;;;;;;;12.35;8.00;;;7.70;53.00;;;;;;5071971;28;20328;-89
2022/03/11 10:12:23;;;;;;;12.90;8.55;;;7.30;44.70;;;;;;5072574;28;20243;-89
2022/03/11 10:14:59;;;;;;;13.32;8.90;;;7.30;51.40;;;;;;5071645;28;20272;-89
2022/03/11 10:17:27;;;;;;;12.82;9.27;;;7.70;44.70;;;;;;5053168;28;20211;-88
2022/03/11 10:19:56;;;;;;;13.65;9.07;;;7.60;44.40;;;;;;5066332;28;20219;-89
2022/03/11 10:22:26;;;;;;;11.50;8.48;;;7.30;57.40;;;;;;5072031;28;20221;-88
2022/03/11 10:24:53;;;;;;;10.88;8.88;;;7.80;58.20;;;;;;5071606;28;20249;-88
2022/03/11 10:27:23;;;;;;;13.63;9.00;;;7.50;45.20;;;;;;5071742;28;20273;-88
2022/03/11 10:29:51;;;;;;;10.88;8.77;;;7.70;58.40;;;;;;5071520;28;20720;-89
2022/03/11 10:32:24;;;;;;;10.85;8.98;;;;;;;;;;5070884;28;20310;-88
2022/03/11 10:34:51;;;;;;;10.50;7.95;;;;;;;;;;5071667;28;20211;-89
2022/03/11 10:37:19;;;;;;;12.77;9.73;;;7.80;45.00;;;;;;5070849;28;20217;-90
2022/03/11 10:39:48;;;;;;;14.73;9.82;;;8.10;44.50;;;;;;5069717;28;20252;-89
2022/03/11 10:42:19;;;;;;;10.75;9.32;;;8.00;44.60;;;;;;5071226;28;20196;-89
2022/03/11 10:44:58;;;;;;;10.88;8.20;;;7.90;44.50;;;;;;5069895;28;20237;-89
2022/03/11 10:47:27;;;;;;;11.15;8.18;;;8.00;58.50;;;;;;5071296;28;20214;-89
2022/03/11 10:49:56;;;;;;;14.38;7.82;;;9.70;58.40;;;;;;5070562;28;20212;-90
2022/03/11 10:52:31;;;;;;;13.65;9.23;;;8.30;44.60;;;;;;5060338;28;20228;-89
2022/03/11 10:55:00;;;;;;;16.08;9.70;;;8.30;44.00;;;;;;5064211;28;20850;-89
2022/03/11 10:57:35;;;;;;;13.23;9.15;;;8.40;44.60;;;;;;5070799;28;20287;-89
2022/03/11 11:00:19;;;;;;;10.45;9.05;;;8.40;44.60;;;;;;5070840;28;20239;-88
2022/03/11 11:02:47;;;;;;;11.63;9.88;;;;;;;;;;5070769;28;20829;-89
2022/03/11 11:05:14;;;;;;;18.02;9.88;;;;;;;;;;5070039;28;20228;-89
2022/03/11 11:07:42;;;;;;;12.85;7.97;;;8.60;43.50;;;;;;5070456;28;20203;-89
2022/03/11 11:10:11;;;;;;;17.05;8.25;;;8.60;57.00;;;;;;5070839;28;20207;-89
2022/03/11 11:12:40;;;;;;;11.77;9.45;;;8.60;43.90;;;;;;5070802;28;20313;-89
2022/03/11 11:15:08;;;;;;;10.65;8.82;;;;;;;;;;5070117;28;20318;-89
2022/03/11 11:17:38;;;;;;;12.90;9.25;;;9.40;58.00;;;;;;5072439;28;20216;-89
2022/03/11 11:20:11;;;;;;;15.35;9.27;;;8.80;43.80;;;;;;5069102;28;20745;-89
2022/03/11 11:22:40;;;;;;;11.23;9.25;;;8.80;43.80;;;;;;5069025;28;20212;-88
2022/03/11 11:25:19;;;;;;;11.10;9.55;;;8.90;44.10;;;;;;5053866;28;20281;-89
2022/03/11 11:27:47;;;;;;;11.60;8.30;;;9.10;43.80;;;;;;5071080;28;20280;-88
2022/03/11 11:30:20;;;;;;;14.63;8.60;;;9.20;44.20;;;;;;5069915;28;20330;-90
2022/03/11 11:32:49;;;;;;;9.60;8.57;;;9.40;43.60;;;;;;5071317;28;20663;-89
2022/03/11 11:35:28;;;;;;;11.88;7.85;;;9.40;43.60;;;;;;5070447;28;20676;-89
2022/03/11 11:37:56;;;;;;;14.82;10.57;;;9.20;51.10;;;;;;5075396;28;20200;-89
2022/03/11 11:40:27;;;;;;;14.07;9.15;;;9.70;53.80;;;;;;5073067;28;20217;-88
2022/03/11 11:43:29;;;;;;;13.53;10.80;;;9.60;51.10;;;;;;5062270;28;20751;-88
2022/03/11 11:46:12;;;;;;;16.90;10.27;;;9.40;56.30;;;;;;5069534;28;20714;-89
2022/03/11 11:49:02;;;;;;;15.60;10.10;;;9.60;44.30;;;;;;5067776;28;21231;-88
2022/03/11 11:51:55;;;;;;;13.70;9.50;;;9.90;56.90;;;;;;5066236;28;20217;-88
2022/03/11 11:54:38;;;;;;;14.40;10.20;;;9.80;43.70;;;;;;5058731;28;20751;-89
2022/03/11 11:57:07;;;;;;;15.33;10.77;;;9.90;43.30;;;;;;5059626;28;20659;-90
2022/03/11 11:59:37;;;;;;;18.50;10.33;;;10.00;42.40;;;;;;5070330;28;21008;-89
2022/03/11 12:02:24;;;;;;;13.77;9.10;;;10.00;43.20;;;;;;5066392;28;20612;-89
2022/03/11 12:05:02;;;;;;;16.33;11.23;;;10.10;42.20;;;;;;5070070;28;20633;-90
2022/03/11 12:07:49;;;;;;;12.70;9.30;;;10.10;42.30;;;;;;5070192;28;20716;-91
2022/03/11 12:10:28;;;;;;;13.07;10.33;;;10.20;55.10;;;;;;5066730;28;21090;-91
2022/03/11 12:13:00;;;;;;;16.00;9.20;;;10.00;42.30;;;;;;5068262;28;20748;-91
2022/03/11 12:15:31;;;;;;;13.00;10.47;;;10.00;42.20;;;;;;5069249;28;20654;-90
2022/03/11 12:18:00;;;;;;;12.30;9.30;;;11.30;43.00;;;;;;5066077;28;20724;-91
2022/03/11 12:20:37;;;;;;;12.50;10.40;;;10.40;42.30;;;;;;5070569;28;20648;-92
2022/03/11 12:23:11;;;;;;;17.53;9.80;;;10.50;41.70;;;;;;5069032;28;20631;-91
2022/03/11 12:25:44;;;;;;;12.60;9.63;;;10.50;41.90;;;;;;5070409;28;21280;-90
2022/03/11 12:28:17;;;;;;;17.37;10.20;;;10.60;41.80;;;;;;5070619;28;20644;-91
2022/03/11 12:30:54;;;;;;;10.97;8.97;;;10.50;42.10;;;;;;5068715;28;20616;-91
2022/03/11 12:33:24;;;;;;;12.13;9.63;;;10.60;41.80;;;;;;5070143;28;20696;-91
2022/03/11 12:35:54;;;;;;;14.07;10.67;;;10.70;42.30;;;;;;5071239;28;20663;-91
2022/03/11 12:38:23;;;;;;;20.63;11.10;;;10.80;41.90;;;;;;5069586;28;20720;-91
2022/03/11 12:40:52;;;;;;;13.93;9.17;;;10.90;42.00;;;;;;5060154;28;20614;-91
2022/03/11 12:43:22;;;;;;;13.73;10.10;;;9.80;41.90;;;;;;5050356;28;21020;-91
2022/03/11 12:45:51;;;;;;;11.90;9.13;;;10.90;41.80;;;;;;5053311;28;20614;-91
2022/03/11 12:48:20;;;;;;;12.43;10.43;;;11.00;41.40;;;;;;5070293;28;20720;-91
2022/03/11 12:50:47;;;;;;;15.13;9.20;;;;;;;;;;5070172;28;20621;-91
2022/03/11 12:53:16;;;;;;;12.80;8.83;;;11.10;42.20;;;;;;5071808;28;20705;-91
2022/03/11 12:55:44;;;;;;;21.30;9.90;;;11.00;53.40;;;;;;5080322;28;20640;-91
2022/03/11 12:58:14;;;;;;;13.80;10.20;;;11.20;41.80;;;;;;5080508;28;20721;-91
2022/03/11 13:00:45;;;;;;;12.13;9.50;;;11.20;41.90;;;;;;5071953;28;20748;-91
2022/03/11 13:03:14;;;;;;;13.50;10.80;;;11.30;42.00;;;;;;5062220;28;20622;-91
2022/03/11 13:05:45;;;;;;;11.03;9.73;;;11.40;41.60;;;;;;5068803;28;20629;-90
2022/03/11 13:08:16;;;;;;;11.17;9.60;;;11.50;40.90;;;;;;5070186;28;20609;-91
2022/03/11 13:10:44;;;;;;;14.07;9.77;;;;;;;;;;5068579;28;21340;-91
2022/03/11 13:13:12;;;;;;;15.60;10.40;;;;;;;;;;5068028;28;21205;-93
2022/03/11 13:15:45;;;;;;;12.23;9.53;;;11.80;41.60;;;;;;5071765;28;20614;-91
2022/03/11 13:18:20;;;;;;;19.00;9.93;;;11.70;40.90;;;;;;5071657;28;20648;-92